Time;durP1;ratioP1;P1;durP2;ratioP2;P2;SDS_P1;SDS_P2;PMS_P1;PMS_P2;Temp;Humidity;BMP_temperature;BMP_pressure;BME280_temperature;BME280_humidity;BME280_pressure;Samples;Min_cycle;Max_cycle;Signal;HPM_P1;HPM_P2
2022/05/18 00:02:13;;;;;;;0.67;0.40;;;;;;;11.56;100.00;101736.09;5026892;28;20425;-79
2022/05/18 00:04:46;;;;;;;0.77;0.43;;;;;;;11.45;100.00;101742.56;5029826;28;20417;-79
2022/05/18 00:07:19;;;;;;;0.73;0.50;;;;;;;11.47;100.00;101725.94;5047416;28;20773;-79
2022/05/18 00:09:53;;;;;;;0.85;0.50;;;;;;;11.40;100.00;101734.31;5023330;28;20502;-80
2022/05/18 00:12:28;;;;;;;1.40;0.53;;;;;;;11.33;100.00;101729.09;5049059;28;20408;-79
2022/05/18 00:15:03;;;;;;;0.82;0.50;;;;;;;11.26;100.00;101730.41;5019036;28;20429;-80
2022/05/18 00:17:31;;;;;;;3.05;0.50;;;;;;;11.27;100.00;101729.28;5030313;28;20444;-79
2022/05/18 00:19:59;;;;;;;4.05;0.60;;;;;;;11.31;100.00;101733.97;5038744;28;20409;-81
2022/05/18 00:22:32;;;;;;;0.80;0.40;;;;;;;11.28;100.00;101730.94;5031688;28;20443;-80
2022/05/18 00:25:01;;;;;;;0.60;0.40;;;;;;;11.20;100.00;101734.97;5034111;28;20447;-80
2022/05/18 00:27:30;;;;;;;1.70;0.50;;;;;;;11.17;100.00;101725.41;5047367;28;20417;-80
2022/05/18 00:30:06;;;;;;;0.70;0.40;;;;;;;11.17;100.00;101717.25;5019792;28;20866;-80
2022/05/18 00:32:39;;;;;;;0.93;0.40;;;;;;;11.14;100.00;101716.91;5047239;28;20421;-80
2022/05/18 00:35:13;;;;;;;0.60;0.50;;;;;;;11.21;100.00;101720.25;5034883;28;20430;-80
2022/05/18 00:37:47;;;;;;;1.13;0.50;;;;;;;11.13;100.00;101724.28;5046065;28;20405;-80
2022/05/18 00:40:21;;;;;;;0.65;0.50;;;;;;;11.08;100.00;101729.66;5046082;28;20987;-80
2022/05/18 00:42:54;;;;;;;1.17;0.52;;;;;;;11.05;100.00;101722.84;5042182;28;20431;-80
2022/05/18 00:45:29;;;;;;;0.43;0.43;;;;;;;11.03;100.00;101727.72;5041618;28;20428;-80
2022/05/18 00:48:02;;;;;;;1.30;0.50;;;;;;;11.01;100.00;101718.97;5046974;28;20432;-80
2022/05/18 00:50:37;;;;;;;0.82;0.43;;;;;;;10.93;100.00;101724.06;5034683;28;20421;-80
2022/05/18 00:53:15;;;;;;;1.83;0.50;;;;;;;10.98;100.00;101726.84;5026035;28;20434;-80
2022/05/18 00:55:52;;;;;;;0.77;0.50;;;;;;;11.00;100.00;101724.69;5050243;28;20774;-80
2022/05/18 00:58:24;;;;;;;1.15;0.60;;;;;;;10.99;100.00;101725.75;5032754;28;20440;-80
2022/05/18 01:00:59;;;;;;;1.00;0.50;;;;;;;11.00;100.00;101727.41;5046699;28;20774;-80
2022/05/18 01:03:36;;;;;;;1.50;0.50;;;;;;;10.98;100.00;101718.66;5048256;28;20778;-80
2022/05/18 01:06:15;;;;;;;0.60;0.50;;;;;;;11.03;100.00;101726.88;5027660;28;20425;-80
2022/05/18 01:08:52;;;;;;;2.90;0.80;;;;;;;11.03;100.00;101724.16;5046547;28;20413;-80
2022/05/18 01:11:26;;;;;;;0.75;0.52;;;;;;;10.99;100.00;101729.31;5030845;28;20808;-80
2022/05/18 01:13:59;;;;;;;1.30;0.60;;;;;;;11.05;100.00;101717.38;5027210;28;20878;-79
2022/05/18 01:16:34;;;;;;;2.10;0.60;;;;;;;11.00;100.00;101717.31;5043893;28;21052;-80
2022/05/18 01:19:16;;;;;;;1.95;0.60;;;;;;;10.94;100.00;101714.81;5043783;28;20420;-80
2022/05/18 01:21:53;;;;;;;0.88;0.50;;;;;;;10.79;100.00;101713.56;5042064;28;20421;-80
2022/05/18 01:24:31;;;;;;;1.80;0.50;;;;;;;10.76;100.00;101714.09;5041106;28;20467;-80
2022/05/18 01:27:01;;;;;;;0.80;0.50;;;;;;;10.82;100.00;101713.06;5031722;28;20429;-80
2022/05/18 01:29:35;;;;;;;0.60;0.45;;;;;;;10.75;100.00;101727.97;5026802;28;20425;-80
2022/05/18 01:32:14;;;;;;;0.80;0.40;;;;;;;10.76;100.00;101727.72;5026209;28;20419;-80
2022/05/18 01:34:43;;;;;;;0.80;0.52;;;;;;;10.73;100.00;101728.22;5044872;28;20425;-79
2022/05/18 01:37:17;;;;;;;1.88;0.63;;;;;;;10.75;100.00;101726.06;5047799;28;20440;-80
2022/05/18 01:39:53;;;;;;;1.13;0.60;;;;;;;10.68;100.00;101720.00;5046457;28;20409;-80
2022/05/18 01:42:29;;;;;;;1.20;0.60;;;;;;;10.71;100.00;101725.72;5029497;28;20430;-80
2022/05/18 01:44:58;;;;;;;0.70;0.50;;;;;;;10.62;100.00;101723.72;5029460;28;20545;-80
2022/05/18 01:47:33;;;;;;;1.17;0.60;;;;;;;10.61;100.00;101716.66;5019143;28;20771;-80
2022/05/18 01:50:11;;;;;;;1.17;0.50;;;;;;;10.63;100.00;101722.66;5027403;28;20416;-80
2022/05/18 01:52:40;;;;;;;0.97;0.60;;;;;;;10.66;100.00;101725.69;5022668;28;20488;-80
2022/05/18 01:55:17;;;;;;;1.73;0.77;;;;;;;10.67;100.00;101734.69;5052914;28;20413;-80
2022/05/18 01:57:47;;;;;;;0.70;0.50;;;;;;;10.64;100.00;101729.75;5041829;28;20421;-80
2022/05/18 02:00:21;;;;;;;0.93;0.50;;;;;;;10.68;100.00;101728.16;5038524;28;20780;-81
2022/05/18 02:02:55;;;;;;;0.63;0.50;;;;;;;10.68;100.00;101717.28;5022292;28;20431;-80
2022/05/18 02:05:28;;;;;;;1.10;0.50;;;;;;;10.67;100.00;101724.59;5037909;28;20421;-80
2022/05/18 02:08:02;;;;;;;1.42;0.60;;;;;;;10.62;100.00;101723.72;5021077;28;21080;-80
2022/05/18 02:10:35;;;;;;;0.40;0.40;;;;;;;10.62;100.00;101721.00;5043551;28;20417;-80
2022/05/18 02:13:10;;;;;;;1.80;0.50;;;;;;;10.64;100.00;101721.59;5046190;28;20419;-80
2022/05/18 02:15:44;;;;;;;1.13;0.60;;;;;;;10.66;100.00;101719.41;5023234;28;20425;-79
2022/05/18 02:18:12;;;;;;;0.82;0.57;;;;;;;10.64;100.00;101725.13;5030489;28;20428;-80
2022/05/18 02:20:40;;;;;;;0.80;0.50;;;;;;;10.65;100.00;101720.50;5032271;28;20425;-80
2022/05/18 02:23:09;;;;;;;1.43;0.70;;;;;;;10.59;100.00;101716.06;5044053;28;20405;-80
2022/05/18 02:25:42;;;;;;;1.52;0.57;;;;;;;10.50;100.00;101704.81;5022555;28;20425;-80
2022/05/18 02:28:17;;;;;;;0.85;0.60;;;;;;;10.57;100.00;101704.63;5022968;28;20434;-79
2022/05/18 02:30:46;;;;;;;1.15;0.60;;;;;;;10.53;100.00;101707.03;5026330;28;20434;-80
2022/05/18 02:33:15;;;;;;;1.27;0.70;;;;;;;10.58;100.00;101707.09;5026040;28;20429;-81
2022/05/18 02:35:43;;;;;;;0.80;0.50;;;;;;;10.49;100.00;101703.97;5042344;28;20432;-80
2022/05/18 02:38:17;;;;;;;2.30;0.70;;;;;;;10.50;100.00;101713.78;5021066;28;20910;-80
2022/05/18 02:40:45;;;;;;;1.75;0.65;;;;;;;10.52;100.00;101711.66;5030695;28;20410;-80
2022/05/18 02:43:20;;;;;;;2.17;0.70;;;;;;;10.52;100.00;101705.38;5048922;28;20909;-81
2022/05/18 02:46:01;;;;;;;1.88;0.70;;;;;;;10.47;100.00;101710.78;5042446;28;20425;-80
2022/05/18 02:48:35;;;;;;;0.90;0.60;;;;;;;10.47;100.00;101717.03;5035292;28;20421;-80
2022/05/18 02:51:09;;;;;;;1.98;0.70;;;;;;;10.40;100.00;101718.28;5032503;28;20421;-80
2022/05/18 02:53:43;;;;;;;0.60;0.50;;;;;;;10.44;100.00;101724.88;5039569;28;20429;-80
2022/05/18 02:56:20;;;;;;;1.33;0.70;;;;;;;10.41;100.00;101709.06;5046092;28;20436;-80
2022/05/18 02:58:51;;;;;;;1.38;0.60;;;;;;;10.38;100.00;101705.78;5027858;28;20418;-80
2022/05/18 03:01:22;;;;;;;1.30;0.80;;;;;;;10.37;100.00;101711.44;5029816;28;20883;-80
2022/05/18 03:03:56;;;;;;;1.30;0.70;;;;;;;10.36;100.00;101718.81;5041443;28;20425;-80
2022/05/18 03:06:29;;;;;;;1.13;0.60;;;;;;;10.35;100.00;101713.63;5045443;28;20456;-80
2022/05/18 03:08:57;;;;;;;1.30;0.75;;;;;;;10.37;100.00;101719.59;5041170;28;20424;-80
2022/05/18 03:11:31;;;;;;;1.50;0.70;;;;;;;10.36;100.00;101721.53;5032091;28;20417;-80
2022/05/18 03:14:05;;;;;;;2.17;0.70;;;;;;;10.37;100.00;101728.63;5043916;28;20435;-80
2022/05/18 03:16:33;;;;;;;1.73;0.70;;;;;;;10.34;100.00;101725.53;5025257;28;20425;-80
2022/05/18 03:19:02;;;;;;;1.00;0.70;;;;;;;10.41;100.00;101728.09;5044844;28;20412;-80
2022/05/18 03:24:20;;;;;;;2.30;0.60;;;;;;;10.38;100.00;101735.72;5034334;28;20407;-80
2022/05/18 03:26:54;;;;;;;0.80;0.68;;;;;;;10.40;100.00;101738.19;5029365;28;20763;-80
2022/05/18 03:29:29;;;;;;;1.10;0.70;;;;;;;10.34;100.00;101737.28;5027407;28;20419;-80
2022/05/18 03:31:57;;;;;;;1.27;0.70;;;;;;;10.37;100.00;101741.38;5041943;28;20775;-80
2022/05/18 03:34:30;;;;;;;1.45;0.80;;;;;;;10.38;100.00;101735.72;5039211;28;20429;-81
2022/05/18 03:36:59;;;;;;;1.10;0.70;;;;;;;10.44;100.00;101741.19;5044063;28;20421;-80
2022/05/18 03:39:32;;;;;;;1.10;0.70;;;;;;;10.42;100.00;101743.38;5038172;28;20429;-80
2022/05/18 03:42:06;;;;;;;1.48;0.70;;;;;;;10.43;100.00;101750.47;5027884;28;20430;-80
2022/05/18 03:44:36;;;;;;;0.88;0.68;;;;;;;10.39;100.00;101755.56;5041978;28;20417;-80
2022/05/18 03:47:05;;;;;;;1.60;0.60;;;;;;;10.43;100.00;101756.72;5042939;28;20449;-80
2022/05/18 03:49:33;;;;;;;1.33;0.70;;;;;;;10.41;100.00;101749.88;5027634;28;20451;-80
2022/05/18 03:52:01;;;;;;;0.90;0.60;;;;;;;10.34;100.00;101747.28;5024145;28;20427;-81
2022/05/18 03:54:35;;;;;;;1.10;0.70;;;;;;;10.37;100.00;101742.22;5036355;28;20436;-80
2022/05/18 03:57:10;;;;;;;0.85;0.70;;;;;;;10.40;100.00;101743.63;5042302;28;20449;-80
2022/05/18 03:59:44;;;;;;;1.00;0.70;;;;;;;10.46;100.00;101748.03;5041143;28;20429;-80
2022/05/18 04:02:17;;;;;;;1.65;0.70;;;;;;;10.44;100.00;101750.19;5041222;28;20427;-80
2022/05/18 04:04:50;;;;;;;1.10;0.70;;;;;;;10.43;100.00;101745.81;5046233;28;20425;-80
2022/05/18 04:07:19;;;;;;;1.65;0.70;;;;;;;10.46;100.00;101749.94;5043890;28;20431;-80
2022/05/18 04:09:52;;;;;;;1.05;0.60;;;;;;;10.41;100.00;101747.16;5026602;28;20874;-80
2022/05/18 04:12:25;;;;;;;0.80;0.63;;;;;;;10.41;100.00;101753.41;5026058;28;20778;-80
2022/05/18 04:15:00;;;;;;;1.38;0.70;;;;;;;10.43;100.00;101753.19;5036905;28;20417;-80
2022/05/18 04:17:33;;;;;;;1.70;0.60;;;;;;;10.37;100.00;101754.97;5020842;28;20428;-80
2022/05/18 04:20:01;;;;;;;2.65;0.88;;;;;;;10.34;100.00;101752.75;5027454;28;20416;-80
2022/05/18 04:22:30;;;;;;;1.90;0.80;;;;;;;10.31;100.00;101750.53;5027153;28;20432;-80
2022/05/18 04:25:04;;;;;;;1.38;0.70;;;;;;;10.28;100.00;101759.19;5046081;28;20459;-80
2022/05/18 04:27:37;;;;;;;1.58;0.73;;;;;;;10.26;100.00;101766.78;5039160;28;20425;-80
2022/05/18 04:30:12;;;;;;;1.35;0.75;;;;;;;10.22;100.00;101752.88;5044520;28;20431;-80
2022/05/18 04:32:46;;;;;;;1.38;0.70;;;;;;;10.25;100.00;101748.81;5020354;28;20442;-80
2022/05/18 04:35:22;;;;;;;0.95;0.70;;;;;;;10.23;100.00;101756.41;5044845;28;20417;-80
2022/05/18 04:37:50;;;;;;;1.30;0.80;;;;;;;10.25;100.00;101756.97;5042759;28;20433;-80
2022/05/18 04:40:24;;;;;;;0.90;0.70;;;;;;;10.17;100.00;101744.63;5023954;28;20430;-80
2022/05/18 04:42:57;;;;;;;1.70;0.90;;;;;;;10.26;100.00;101761.34;5046169;28;20498;-80
2022/05/18 04:45:27;;;;;;;2.28;0.75;;;;;;;10.31;100.00;101758.69;5037289;28;20434;-80
2022/05/18 04:48:00;;;;;;;1.20;0.60;;;;;;;10.34;100.00;101759.06;5040406;28;20430;-80
2022/05/18 04:50:28;;;;;;;1.20;0.60;;;;;;;10.36;100.00;101765.06;5021698;28;21158;-80
2022/05/18 04:52:57;;;;;;;1.05;0.70;;;;;;;10.41;100.00;101755.31;5048739;28;20405;-80
2022/05/18 04:55:25;;;;;;;1.00;0.70;;;;;;;10.40;100.00;101757.22;5018902;28;20419;-80
2022/05/18 04:57:53;;;;;;;1.80;0.73;;;;;;;10.48;100.00;101750.50;5038711;28;20417;-80
2022/05/18 05:00:28;;;;;;;2.92;0.80;;;;;;;10.58;100.00;101755.25;5025161;28;20409;-81
2022/05/18 05:03:01;;;;;;;2.50;0.80;;;;;;;10.88;100.00;101761.06;5036880;28;20429;-80
2022/05/18 05:05:34;;;;;;;1.80;0.90;;;;;;;11.83;100.00;101753.47;5028039;28;20421;-80
2022/05/18 05:08:08;;;;;;;2.20;0.90;;;;;;;13.15;100.00;101754.34;5037991;28;20452;-80
2022/05/18 05:10:41;;;;;;;2.17;0.90;;;;;;;13.85;100.00;101748.38;5042282;28;20425;-80
2022/05/18 05:13:09;;;;;;;1.87;0.80;;;;;;;14.63;100.00;101751.75;5017729;28;20448;-80
2022/05/18 05:15:46;;;;;;;1.02;0.70;;;;;;;14.67;100.00;101746.53;5034295;28;20429;-81
2022/05/18 05:18:19;;;;;;;1.67;0.80;;;;;;;14.75;100.00;101756.91;5044041;28;20426;-80
2022/05/18 05:20:52;;;;;;;1.85;0.95;;;;;;;14.51;100.00;101760.25;5042025;28;20905;-80
2022/05/18 05:23:26;;;;;;;1.20;0.80;;;;;;;13.26;100.00;101766.13;5017876;28;20433;-80
2022/05/18 05:26:00;;;;;;;1.83;0.63;;;;;;;12.50;100.00;101773.81;5027646;28;20424;-80
2022/05/18 05:28:33;;;;;;;0.90;0.70;;;;;;;11.81;100.00;101761.09;5024111;28;20425;-81
2022/05/18 05:31:12;;;;;;;1.25;0.80;;;;;;;11.80;100.00;101773.09;5043350;28;20428;-80
2022/05/18 05:33:45;;;;;;;1.70;0.83;;;;;;;11.64;100.00;101753.03;5042925;28;20428;-80
2022/05/18 05:36:19;;;;;;;1.85;0.90;;;;;;;11.73;100.00;101782.31;5032641;28;20427;-80
2022/05/18 05:38:53;;;;;;;2.50;0.90;;;;;;;11.68;100.00;101771.38;5039943;28;20432;-80
2022/05/18 05:41:22;;;;;;;2.38;0.80;;;;;;;11.94;100.00;101768.84;5046533;28;20906;-80
2022/05/18 05:43:56;;;;;;;1.70;0.85;;;;;;;12.13;100.00;101765.72;5035714;28;20890;-80
2022/05/18 05:46:30;;;;;;;1.08;0.77;;;;;;;12.34;100.00;101769.38;5041293;28;20436;-80
2022/05/18 05:49:04;;;;;;;1.35;0.93;;;;;;;12.55;100.00;101764.81;5036235;28;20910;-80
2022/05/18 05:51:37;;;;;;;2.30;1.00;;;;;;;12.55;100.00;101762.94;5026237;28;20422;-80
2022/05/18 05:54:10;;;;;;;2.50;1.02;;;;;;;12.54;100.00;101761.28;5044592;28;20409;-80
2022/05/18 05:56:38;;;;;;;1.45;1.00;;;;;;;12.59;100.00;101752.28;5021388;28;20425;-80
2022/05/18 05:59:13;;;;;;;1.80;0.93;;;;;;;12.68;100.00;101749.88;5045087;28;20415;-80
2022/05/18 06:01:48;;;;;;;1.55;0.90;;;;;;;12.70;100.00;101750.41;5022827;28;20419;-81
2022/05/18 06:04:17;;;;;;;3.50;1.10;;;;;;;12.67;100.00;101757.22;5022665;28;20426;-81
2022/05/18 06:06:50;;;;;;;2.72;1.00;;;;;;;12.58;100.00;101756.94;5041117;28;20426;-80
2022/05/18 06:09:24;;;;;;;1.13;0.98;;;;;;;12.52;100.00;101757.16;5018599;28;20419;-81
2022/05/18 06:11:57;;;;;;;2.45;1.10;;;;;;;12.34;100.00;101759.25;5037859;28;20436;-80
2022/05/18 06:14:30;;;;;;;3.03;1.30;;;;;;;12.38;100.00;101754.09;5021493;28;20432;-80
2022/05/18 06:17:05;;;;;;;2.10;1.20;;;;;;;12.37;100.00;101760.66;5038255;28;20454;-80
2022/05/18 06:19:38;;;;;;;1.73;1.13;;;;;;;12.68;100.00;101753.41;5029296;28;20821;-80
2022/05/18 06:22:12;;;;;;;1.60;1.10;;;;;;;12.92;100.00;101742.00;5014504;28;20438;-80
2022/05/18 06:24:49;;;;;;;1.40;1.00;;;;;;;13.35;100.00;101752.72;5029795;28;20426;-81
2022/05/18 06:27:23;;;;;;;1.80;1.20;;;;;;;13.48;100.00;101745.94;5020268;28;20428;-81
2022/05/18 06:29:51;;;;;;;1.98;1.20;;;;;;;13.78;100.00;101747.81;5018952;28;20427;-81
2022/05/18 06:32:26;;;;;;;2.00;1.00;;;;;;;13.88;100.00;101756.03;5015509;28;20429;-80
2022/05/18 06:34:59;;;;;;;1.40;0.98;;;;;;;14.10;100.00;101747.50;5014731;28;21298;-80
2022/05/18 06:37:27;;;;;;;2.30;1.20;;;;;;;14.27;100.00;101744.44;5042092;28;20798;-82
2022/05/18 06:39:55;;;;;;;1.48;1.13;;;;;;;14.42;100.00;101745.50;5040265;28;20407;-81
2022/05/18 06:42:29;;;;;;;2.20;1.10;;;;;;;14.52;100.00;101741.91;5038143;28;20429;-80
2022/05/18 06:45:04;;;;;;;1.80;1.10;;;;;;;14.77;100.00;101752.75;5042954;28;20420;-80
2022/05/18 06:47:33;;;;;;;3.00;1.33;;;;;;;14.93;100.00;101758.19;5035379;28;20431;-78
2022/05/18 06:50:09;;;;;;;3.08;1.30;;;;;;;15.13;100.00;101757.22;5042738;28;20420;-78
2022/05/18 06:52:42;;;;;;;2.03;1.20;;;;;;;15.39;100.00;101748.81;5046215;28;20716;-79
2022/05/18 06:55:17;;;;;;;4.00;1.25;;;;;;;15.26;100.00;101745.63;5040701;28;20468;-80
2022/05/18 06:57:51;;;;;;;2.58;1.40;;;;;;;15.18;100.00;101748.13;5031114;28;20420;-80
2022/05/18 07:03:10;;;;;;;3.63;1.50;;;;;;;15.28;100.00;101750.81;5038668;28;20419;-80
2022/05/18 07:05:43;;;;;;;2.10;1.30;;;;;;;15.38;100.00;101749.91;5041299;28;20459;-78
2022/05/18 07:08:16;;;;;;;2.85;1.40;;;;;;;15.59;100.00;101756.03;5022362;28;20423;-82
2022/05/18 07:10:45;;;;;;;5.40;3.37;;;;;;;15.69;100.00;101753.22;5027693;28;20457;-82
2022/05/18 07:13:18;;;;;;;3.72;2.20;;;;;;;15.97;100.00;101748.84;5027079;28;21050;-82
2022/05/18 07:15:51;;;;;;;3.00;1.60;;;;;;;15.94;100.00;101741.22;5057030;28;20429;-81
2022/05/18 07:18:30;;;;;;;1.70;1.40;;;;;;;15.65;100.00;101752.16;5043138;28;20428;-82
2022/05/18 07:21:06;;;;;;;1.60;1.20;;;;;;;15.95;100.00;101755.75;5021910;28;20440;-81
2022/05/18 07:23:39;;;;;;;2.90;1.42;;;;;;;16.05;100.00;101754.84;5041083;28;20420;-81
2022/05/18 07:26:13;;;;;;;3.05;1.40;;;;;;;16.22;100.00;101752.44;5029991;28;20967;-80
2022/05/18 07:28:46;;;;;;;2.67;1.40;;;;;;;16.15;100.00;101757.47;5045880;28;20424;-81
2022/05/18 07:31:20;;;;;;;2.10;1.40;;;;;;;16.20;100.00;101751.09;5042309;28;20427;-81
2022/05/18 07:33:49;;;;;;;2.60;1.50;;;;;;;16.14;100.00;101744.84;5026812;28;20610;-81
2022/05/18 07:36:19;;;;;;;2.25;1.45;;;;;;;16.43;100.00;101747.53;5044160;28;20452;-81
2022/05/18 07:38:53;;;;;;;2.80;1.70;;;;;;;16.41;100.00;101740.69;5023743;28;20419;-81
2022/05/18 07:41:21;;;;;;;3.65;1.70;;;;;;;16.49;100.00;101740.06;5052150;28;20428;-81
2022/05/18 07:43:54;;;;;;;2.63;1.58;;;;;;;16.74;100.00;101741.63;5025457;28;20451;-82
2022/05/18 07:46:24;;;;;;;3.90;1.83;;;;;;;17.07;100.00;101736.25;5023514;28;20435;-81
2022/05/18 07:48:53;;;;;;;2.15;1.60;;;;;;;16.95;100.00;101741.38;5025004;28;20947;-82
2022/05/18 07:51:26;;;;;;;4.30;1.70;;;;;;;16.99;100.00;101737.72;5044031;28;20435;-81
2022/05/18 07:54:00;;;;;;;4.30;1.90;;;;;;;17.13;100.00;101731.50;5039411;28;20428;-81
2022/05/18 07:56:28;;;;;;;3.45;1.88;;;;;;;17.17;100.00;101729.78;5041937;28;20733;-81
2022/05/18 07:58:56;;;;;;;3.83;1.92;;;;;;;17.37;100.00;101723.13;5045751;28;20426;-80
2022/05/18 08:01:30;;;;;;;3.20;1.90;;;;;;;17.80;100.00;101722.94;5020657;28;20438;-82
2022/05/18 08:03:59;;;;;;;2.70;1.80;;;;;;;18.01;100.00;101723.38;5038953;28;20439;-82
2022/05/18 08:06:33;;;;;;;2.75;1.80;;;;;;;18.17;100.00;101723.09;5044145;28;20451;-82
2022/05/18 08:09:07;;;;;;;4.13;1.98;;;;;;;18.56;100.00;101729.19;5024353;28;20439;-82
2022/05/18 08:17:12;;;;;;;2.85;1.83;;;;;;;18.51;100.00;101728.16;5050104;28;20442;-82
2022/05/18 08:19:47;;;;;;;3.47;1.77;;;;;;;18.29;100.00;101739.94;5025542;28;20432;-82
2022/05/18 08:22:20;;;;;;;4.50;2.22;;;;;;;18.10;100.00;101740.03;5014086;28;20432;-82
2022/05/18 08:24:54;;;;;;;2.78;1.80;;;;;;;17.85;100.00;101744.03;5020978;28;20439;-82
2022/05/18 08:27:27;;;;;;;2.22;1.70;;;;;;;17.88;100.00;101743.44;5021732;28;20424;-82
2022/05/18 08:30:01;;;;;;;3.28;1.70;;;;;;;18.12;100.00;101742.50;5043620;28;20919;-81
2022/05/18 08:32:34;;;;;;;3.80;2.00;;;;;;;18.03;100.00;101739.59;5026289;28;20438;-82
2022/05/18 08:35:10;;;;;;;2.60;1.70;;;;;;;17.87;100.00;101729.97;5050917;28;20438;-81
2022/05/18 08:37:46;;;;;;;3.42;1.73;;;;;;;18.01;100.00;101728.91;5022552;28;20454;-82
2022/05/18 08:40:33;;;;;;;3.17;1.87;;;;;;;17.98;100.00;101723.19;5037444;28;20427;-82
2022/05/18 08:43:07;;;;;;;3.17;1.77;;;;;;;18.18;100.00;101721.97;5045977;28;20435;-81
2022/05/18 08:45:46;;;;;;;3.38;1.77;;;;;;;18.49;100.00;101718.56;5043846;28;20435;-82
2022/05/18 08:48:30;;;;;;;2.97;1.70;;;;;;;18.49;100.00;101722.16;5045996;28;20430;-81
2022/05/18 08:51:04;;;;;;;4.35;1.80;;;;;;;18.34;100.00;101716.97;5029644;28;21869;-81
2022/05/18 08:53:45;;;;;;;2.10;1.70;;;;;;;18.09;100.00;101724.63;5033359;28;20428;-80
2022/05/18 08:56:24;;;;;;;4.45;1.83;;;;;;;18.15;100.00;101723.41;5032912;28;20431;-81
2022/05/18 08:58:57;;;;;;;2.92;1.80;;;;;;;18.24;100.00;101714.41;5046989;28;20446;-81
2022/05/18 09:01:40;;;;;;;3.33;1.80;;;;;;;18.31;100.00;101718.41;5045609;28;20423;-81
2022/05/18 09:04:16;;;;;;;2.83;1.80;;;;;;;18.29;100.00;101709.63;5033790;28;20446;-81
2022/05/18 09:06:54;;;;;;;2.97;2.00;;;;;;;18.29;100.00;101704.09;5050271;28;20416;-81
2022/05/18 09:12:15;;;;;;;2.40;1.80;;;;;;;18.18;100.00;101691.66;5055833;28;20415;-80
2022/05/18 09:14:45;;;;;;;3.50;1.83;;;;;;;18.21;100.00;101702.06;5054269;28;20431;-82
2022/05/18 09:17:23;;;;;;;3.72;2.10;;;;;;;18.32;100.00;101700.72;5046026;28;20430;-82
2022/05/18 09:20:06;;;;;;;5.32;2.10;;;;;;;18.28;100.00;101696.94;5027409;28;20427;-81
2022/05/18 09:22:47;;;;;;;3.27;1.90;;;;;;;18.18;100.00;101697.97;5016908;28;20443;-81
2022/05/18 09:25:32;;;;;;;2.60;1.80;;;;;;;18.82;100.00;101688.06;5028464;28;20434;-82
2022/05/18 09:28:18;;;;;;;2.65;1.70;;;;;;;19.29;100.00;101688.63;5045345;28;20415;-81
2022/05/18 09:31:02;;;;;;;3.22;1.92;;;;;;;19.57;100.00;101693.16;5027554;28;20422;-82
2022/05/18 09:33:58;;;;;;;3.08;1.90;;;;;;;19.82;100.00;101697.25;5050424;28;20434;-81
2022/05/18 09:36:44;;;;;;;2.85;1.70;;;;;;;19.97;100.00;101694.06;5046532;28;20431;-81
2022/05/18 09:39:17;;;;;;;4.28;1.90;;;;;;;20.13;100.00;101702.69;5029178;28;20435;-82
2022/05/18 09:41:51;;;;;;;2.40;1.80;;;;;;;20.10;100.00;101692.28;5050362;28;20428;-84
2022/05/18 09:44:35;;;;;;;4.25;1.95;;;;;;;20.45;100.00;101686.03;5049418;28;21065;-80
2022/05/18 09:47:15;;;;;;;2.40;1.80;;;;;;;20.53;100.00;101693.53;5033566;28;20776;-82
2022/05/18 09:49:51;;;;;;;2.92;1.95;;;;;;;20.71;100.00;101686.94;5046923;28;20620;-81
2022/05/18 09:52:27;;;;;;;2.10;1.70;;;;;;;20.66;100.00;101694.50;5032981;28;20438;-81
2022/05/18 09:55:05;;;;;;;2.97;1.83;;;;;;;20.33;100.00;101694.97;5031206;28;20440;-81
2022/05/18 09:57:45;;;;;;;3.63;1.95;;;;;;;19.98;100.00;101683.81;5028674;28;21437;-82
2022/05/18 10:00:21;;;;;;;3.30;1.92;;;;;;;19.99;100.00;101685.44;5028732;28;20431;-81
2022/05/18 10:08:45;;;;;;;3.67;1.87;;;;;;;20.39;100.00;101671.56;5019412;28;20509;-81
2022/05/18 10:11:22;;;;;;;3.50;1.90;;;;;;;20.71;100.00;101664.81;5042587;28;20428;-81
2022/05/18 10:13:59;;;;;;;4.53;2.10;;;;;;;21.04;100.00;101663.47;5050500;28;20415;-80
2022/05/18 10:16:40;;;;;;;3.10;2.00;;;;;;;21.14;100.00;101657.59;5046217;28;20431;-81
2022/05/18 10:19:22;;;;;;;4.15;1.90;;;;;;;21.23;100.00;101655.63;5043877;28;20430;-81
2022/05/18 10:21:55;;;;;;;3.53;2.00;;;;;;;21.20;100.00;101659.06;4999043;28;20455;-81
2022/05/18 10:24:36;;;;;;;3.08;1.98;;;;;;;21.43;100.00;101661.59;5026914;28;20446;-81
2022/05/18 10:27:22;;;;;;;3.97;1.90;;;;;;;21.22;100.00;101644.88;5034467;28;20424;-80
2022/05/18 10:30:08;;;;;;;2.63;1.80;;;;;;;21.35;100.00;101651.34;5041597;28;20434;-81
2022/05/18 10:32:54;;;;;;;3.78;2.00;;;;;;;21.59;100.00;101655.56;5044750;28;20428;-80
2022/05/18 10:35:35;;;;;;;2.97;1.90;;;;;;;21.77;100.00;101645.22;5033962;28;20431;-82
2022/05/18 10:38:18;;;;;;;2.42;1.80;;;;;;;21.92;100.00;101639.13;5029433;28;20436;-80
2022/05/18 10:41:06;;;;;;;2.77;1.80;;;;;;;22.01;100.00;101636.28;5029871;28;20426;-81
2022/05/18 10:43:43;;;;;;;2.65;1.90;;;;;;;22.15;100.00;101633.28;5034181;28;21237;-81
2022/05/18 10:46:19;;;;;;;4.73;2.40;;;;;;;22.19;100.00;101628.69;5033622;28;20440;-80
2022/05/18 10:48:55;;;;;;;3.20;2.03;;;;;;;22.44;100.00;101631.63;5024285;28;20521;-79
2022/05/18 10:51:29;;;;;;;3.22;1.90;;;;;;;22.53;100.00;101632.38;5023636;28;20439;-79
2022/05/18 10:54:10;;;;;;;3.90;2.00;;;;;;;22.33;100.00;101626.47;5026279;28;20481;-81
2022/05/18 10:56:45;;;;;;;3.72;2.00;;;;;;;22.45;100.00;101622.97;5044676;28;20423;-81
2022/05/18 10:59:34;;;;;;;2.95;2.00;;;;;;;22.05;100.00;101623.38;5027715;28;20412;-80
2022/05/18 11:02:13;;;;;;;3.38;2.03;;;;;;;22.16;100.00;101616.28;5050216;28;20423;-80
2022/05/18 11:04:53;;;;;;;3.10;2.05;;;;;;;22.42;100.00;101626.44;5025747;28;20438;-80
2022/05/18 11:07:28;;;;;;;3.35;2.10;;;;;;;22.45;100.00;101622.97;5024427;28;20542;-80
2022/05/18 11:10:02;;;;;;;3.58;2.08;;;;;;;22.62;100.00;101626.75;5028136;28;20419;-81
2022/05/18 11:12:42;;;;;;;2.50;1.80;;;;;;;22.81;100.00;101615.16;5045952;28;20432;-81
2022/05/18 11:15:27;;;;;;;3.08;1.90;;;;;;;22.89;100.00;101617.06;5045345;28;20918;-82
2022/05/18 11:18:11;;;;;;;3.23;2.20;;;;;;;22.99;100.00;101607.47;5030304;28;20442;-80
2022/05/18 11:20:58;;;;;;;4.35;2.00;;;;;;;23.04;100.00;101607.28;5051015;28;20404;-80
2022/05/18 11:23:42;;;;;;;3.10;1.90;;;;;;;23.09;100.00;101607.88;5049115;28;20419;-81
2022/05/18 11:26:21;;;;;;;2.70;2.00;;;;;;;23.24;100.00;101600.03;5035496;28;20415;-80
2022/05/18 11:29:00;;;;;;;4.40;2.10;;;;;;;23.30;100.00;101606.19;5033426;28;20424;-81
2022/05/18 11:31:57;;;;;;;3.35;2.00;;;;;;;23.18;100.00;101598.66;5029136;28;20930;-80
2022/05/18 11:34:38;;;;;;;3.72;2.05;;;;;;;23.20;100.00;101590.78;5045381;28;20411;-81
2022/05/18 11:37:28;;;;;;;2.78;2.00;;;;;;;23.42;100.00;101582.03;5033081;28;20419;-81
2022/05/18 11:40:16;;;;;;;3.33;2.10;;;;;;;23.43;100.00;101589.19;5025184;28;20430;-80
2022/05/18 11:43:25;;;;;;;2.90;2.03;;;;;;;23.24;100.00;101586.16;5028334;28;20903;-80
2022/05/18 11:46:20;;;;;;;3.55;2.20;;;;;;;23.46;100.00;101586.88;5023509;28;20428;-82
2022/05/18 11:49:11;;;;;;;3.97;2.15;;;;;;;23.36;100.00;101588.97;5027283;28;21780;-81
2022/05/18 11:51:56;;;;;;;4.55;2.17;;;;;;;23.41;100.00;101590.72;5022479;28;22029;-83
2022/05/18 11:54:43;;;;;;;4.37;2.27;;;;;;;23.42;100.00;101578.44;5029136;28;20871;-82
2022/05/18 11:57:28;;;;;;;3.20;2.03;;;;;;;23.46;100.00;101593.25;5042608;28;20424;-81
2022/05/18 12:00:10;;;;;;;3.10;2.25;;;;;;;23.56;100.00;101594.75;5033468;28;20424;-82
2022/05/18 12:03:03;;;;;;;4.18;2.50;;;;;;;23.62;100.00;101581.47;5026743;28;21348;-81
2022/05/18 12:05:49;;;;;;;3.03;2.00;;;;;;;23.55;100.00;101585.63;5031525;28;20431;-78
2022/05/18 12:08:45;;;;;;;3.38;2.30;;;;;;;23.80;100.00;101580.06;5024267;28;20431;-80
2022/05/18 12:11:31;;;;;;;2.95;2.15;;;;;;;23.82;100.00;101586.06;5027408;28;20470;-82
2022/05/18 12:14:16;;;;;;;3.20;2.30;;;;;;;23.87;100.00;101566.38;5048755;28;20427;-82